createdAt,value
2017-10-31T00:04:38.580Z,6
2017-10-31T00:14:38.531Z,5
2017-10-31T00:24:39.704Z,6
2017-10-31T00:34:39.574Z,7
2017-10-31T00:44:55.396Z,6
2017-10-31T00:54:39.647Z,5
2017-10-31T01:04:38.454Z,3
2017-10-31T01:14:38.617Z,8
2017-10-31T01:24:40.573Z,8
2017-10-31T01:34:39.625Z,8
2017-10-31T01:44:38.567Z,5
2017-10-31T01:54:38.596Z,4
2017-10-31T02:04:38.605Z,4
2017-10-31T02:14:40.613Z,2
2017-10-31T02:24:38.596Z,2
2017-10-31T02:34:38.680Z,3
2017-10-31T02:44:38.628Z,5
2017-10-31T02:54:39.677Z,6
2017-10-31T03:04:39.681Z,8
2017-10-31T03:14:38.742Z,6
2017-10-31T03:24:39.725Z,9
2017-10-31T03:34:38.678Z,9
2017-10-31T03:44:38.745Z,7
2017-10-31T04:01:07.628Z,7
2017-10-31T04:04:38.649Z,9
2017-10-31T04:14:39.705Z,8
2017-10-31T04:24:39.651Z,7
2017-10-31T04:34:38.715Z,8
2017-10-31T04:44:38.776Z,10
2017-10-31T04:54:38.786Z,9
2017-10-31T05:04:40.766Z,8
2017-10-31T05:14:38.749Z,10
2017-10-31T05:24:39.868Z,10
2017-10-31T05:34:38.771Z,21
2017-10-31T05:44:40.073Z,13
2017-10-31T05:54:39.872Z,11
2017-10-31T06:04:38.767Z,13
2017-10-31T06:14:38.870Z,12
2017-10-31T06:24:38.796Z,15
2017-10-31T06:34:38.915Z,14
2017-10-31T06:44:38.840Z,17
2017-10-31T06:54:38.872Z,14
2017-10-31T07:04:38.860Z,15
2017-10-31T07:14:38.897Z,15
2017-10-31T07:24:38.830Z,19
2017-10-31T07:34:38.768Z,15
2017-10-31T07:44:38.960Z,14
2017-10-31T07:54:38.922Z,12
2017-10-31T08:04:38.919Z,13
2017-10-31T08:14:38.890Z,14
2017-10-31T08:24:39.005Z,13
2017-10-31T08:34:39.969Z,12
2017-10-31T08:44:38.941Z,13
2017-10-31T08:54:38.941Z,12
2017-10-31T09:04:38.951Z,11
2017-10-31T09:14:38.979Z,15
2017-10-31T09:24:38.990Z,13
2017-10-31T09:34:40.008Z,14
2017-10-31T09:44:39.564Z,13
2017-10-31T09:54:39.229Z,13
2017-10-31T10:04:39.194Z,12
2017-10-31T10:14:39.493Z,15
2017-10-31T10:24:39.610Z,11
2017-10-31T10:34:39.304Z,18
2017-10-31T10:44:40.265Z,14
2017-10-31T10:54:39.695Z,14
2017-10-31T11:04:39.785Z,14
2017-10-31T11:14:39.461Z,14
2017-10-31T11:24:39.111Z,13
2017-10-31T11:34:39.218Z,12
2017-10-31T11:44:39.117Z,14
2017-10-31T11:54:39.085Z,11
2017-10-31T12:04:39.170Z,13
2017-10-31T12:14:39.209Z,13
2017-10-31T12:24:39.140Z,12
2017-10-31T12:34:39.174Z,10
2017-10-31T12:44:39.180Z,11
2017-10-31T12:54:40.222Z,9
2017-10-31T13:04:47.837Z,9
2017-10-31T13:14:39.193Z,9
2017-10-31T13:24:39.274Z,9
2017-10-31T13:34:39.236Z,13
2017-10-31T13:44:39.967Z,10
2017-10-31T13:55:50.888Z,9
2017-10-31T14:04:39.779Z,11
2017-10-31T14:14:40.020Z,10
2017-10-31T14:24:53.294Z,10
2017-10-31T14:34:44.190Z,12
2017-10-31T14:44:40.043Z,9
2017-10-31T14:54:40.460Z,10
2017-10-31T15:04:40.290Z,9
2017-10-31T15:14:45.234Z,9
2017-10-31T15:24:40.015Z,11
2017-10-31T15:34:39.985Z,10
2017-10-31T15:44:40.183Z,15
2017-10-31T15:54:40.094Z,11
2017-10-31T16:04:40.219Z,12
2017-10-31T16:14:40.091Z,13
2017-10-31T16:24:41.002Z,9
2017-10-31T16:34:40.322Z,12
2017-10-31T16:44:40.200Z,12
2017-10-31T16:54:40.151Z,14
2017-10-31T17:04:40.532Z,13
2017-10-31T17:14:40.418Z,14
2017-10-31T17:24:40.318Z,17
2017-10-31T17:34:40.244Z,13
2017-10-31T17:44:40.742Z,14
2017-10-31T17:54:40.248Z,12
2017-10-31T18:04:41.125Z,18
2017-10-31T18:14:40.202Z,19
2017-10-31T18:24:41.238Z,16
2017-10-31T18:45:15.205Z,17
2017-10-31T18:54:45.644Z,16
2017-10-31T19:04:42.319Z,15
2017-10-31T19:14:42.266Z,18
2017-10-31T19:24:46.536Z,14
2017-10-31T19:34:45.684Z,19
2017-10-31T19:44:40.495Z,12
2017-10-31T19:54:40.224Z,12
2017-10-31T20:04:40.278Z,17
2017-10-31T20:14:40.346Z,15
2017-10-31T20:24:40.265Z,13
2017-10-31T20:34:40.531Z,14
2017-10-31T20:44:40.235Z,19
2017-10-31T20:54:40.500Z,15
2017-10-31T21:04:40.377Z,13
2017-10-31T21:14:40.374Z,14
2017-10-31T21:24:40.364Z,16
2017-10-31T21:34:40.369Z,19
2017-10-31T21:44:42.541Z,19
2017-10-31T21:54:40.193Z,18
2017-10-31T22:04:40.289Z,23
2017-10-31T22:14:40.550Z,21
2017-10-31T22:24:40.545Z,24
2017-10-31T22:34:40.287Z,22
2017-10-31T22:44:40.260Z,21
2017-10-31T22:54:40.316Z,24
2017-10-31T23:04:40.386Z,25
2017-10-31T23:14:40.733Z,24
2017-10-31T23:24:40.532Z,22
2017-10-31T23:34:40.816Z,26
2017-10-31T23:44:40.518Z,23
2017-10-31T23:54:40.698Z,21
